Time;durP1;ratioP1;P1;durP2;ratioP2;P2;SDS_P1;SDS_P2;PMS_P1;PMS_P2;Temp;Humidity;BMP_temperature;BMP_pressure;BME280_temperature;BME280_humidity;BME280_pressure;Samples;Min_cycle;Max_cycle;Signal;HPM_P1;HPM_P2
2023/09/22 00:02:12;;;;;;;8.07;2.53;;;11.40;99.90;;;;;;5131168;28;20110;-77
2023/09/22 00:04:39;;;;;;;7.65;2.42;;;11.40;99.90;;;;;;5130881;28;20114;-77
2023/09/22 00:07:06;;;;;;;3.67;2.20;;;11.40;99.90;;;;;;5131405;28;20160;-77
2023/09/22 00:09:32;;;;;;;6.72;2.85;;;11.30;99.90;;;;;;5130859;28;20365;-77
2023/09/22 00:11:59;;;;;;;7.35;2.35;;;11.30;99.90;;;;;;5131508;28;20122;-77
2023/09/22 00:14:26;;;;;;;7.00;2.30;;;11.30;99.90;;;;;;5130841;28;20065;-77
2023/09/22 00:16:52;;;;;;;4.75;2.08;;;11.30;99.90;;;;;;5131417;28;20418;-77
2023/09/22 00:19:18;;;;;;;7.18;2.50;;;11.30;99.90;;;;;;5130897;28;20027;-78
2023/09/22 00:21:44;;;;;;;8.13;3.20;;;11.30;99.90;;;;;;5131534;28;20437;-77
2023/09/22 00:24:09;;;;;;;4.07;2.00;;;11.30;99.90;;;;;;5133093;27;20023;-77
2023/09/22 00:26:35;;;;;;;6.55;2.00;;;11.40;99.90;;;;;;5116255;27;20039;-76
2023/09/22 00:29:01;;;;;;;6.55;2.03;;;11.40;99.90;;;;;;5135765;27;20023;-76
2023/09/22 00:31:27;;;;;;;7.55;2.45;;;11.40;99.90;;;;;;5116909;27;20076;-76
2023/09/22 00:33:53;;;;;;;10.35;2.45;;;11.40;99.90;;;;;;5117288;27;20588;-77
2023/09/22 00:36:19;;;;;;;8.05;2.38;;;11.40;99.90;;;;;;5135331;27;20031;-78
2023/09/22 00:38:44;;;;;;;6.50;2.58;;;11.40;99.90;;;;;;5135366;27;20034;-77
2023/09/22 00:41:10;;;;;;;5.68;2.30;;;11.40;99.90;;;;;;5116751;27;20409;-78
2023/09/22 00:43:36;;;;;;;5.05;2.10;;;11.30;99.90;;;;;;5134657;27;20431;-78
2023/09/22 00:46:02;;;;;;;8.65;2.25;;;11.40;99.90;;;;;;5134599;27;20027;-78
2023/09/22 00:48:31;;;;;;;8.15;2.15;;;11.30;99.90;;;;;;5134491;27;20058;-78
2023/09/22 00:50:57;;;;;;;6.40;1.88;;;11.30;99.90;;;;;;5135071;27;20038;-77
2023/09/22 00:53:28;;;;;;;7.10;2.45;;;11.20;99.90;;;;;;5134129;27;20049;-78
2023/09/22 00:55:54;;;;;;;8.52;2.33;;;11.20;99.90;;;;;;5134918;27;20019;-77
2023/09/22 00:58:20;;;;;;;11.55;3.05;;;11.20;99.90;;;;;;5116095;27;20034;-78
2023/09/22 01:00:47;;;;;;;5.40;2.10;;;11.20;99.90;;;;;;5134611;27;20019;-77
2023/09/22 01:03:13;;;;;;;5.55;2.00;;;11.20;99.90;;;;;;5116322;27;20054;-77
2023/09/22 01:05:39;;;;;;;6.57;1.67;;;11.20;99.90;;;;;;5134152;27;20122;-77
2023/09/22 01:08:05;;;;;;;5.75;2.20;;;11.30;99.90;;;;;;5134657;27;20142;-77
2023/09/22 01:10:38;;;;;;;5.88;2.30;;;11.30;99.90;;;;;;5115051;27;20027;-77
2023/09/22 01:13:05;;;;;;;7.18;2.30;;;11.30;99.90;;;;;;5134430;27;20064;-77
2023/09/22 01:15:35;;;;;;;6.03;2.08;;;11.20;99.90;;;;;;5134234;27;20476;-77
2023/09/22 01:18:01;;;;;;;4.85;2.03;;;11.20;99.90;;;;;;5134387;27;20100;-77
2023/09/22 01:20:27;;;;;;;9.75;2.17;;;11.30;99.90;;;;;;5115530;27;20089;-76
2023/09/22 01:22:52;;;;;;;7.47;2.17;;;11.20;99.90;;;;;;5134086;27;20028;-77
2023/09/22 01:25:18;;;;;;;4.47;2.13;;;11.20;99.90;;;;;;5115735;27;20029;-77
2023/09/22 01:27:44;;;;;;;6.72;1.95;;;11.20;99.90;;;;;;5133260;27;20027;-77
2023/09/22 01:30:10;;;;;;;6.80;2.38;;;11.20;99.90;;;;;;5115873;27;20028;-76
2023/09/22 01:32:38;;;;;;;8.88;2.67;;;11.20;99.90;;;;;;5133292;27;20448;-76
2023/09/22 01:35:08;;;;;;;8.05;2.10;;;11.20;99.90;;;;;;5133597;27;20038;-77
2023/09/22 01:37:49;;;;;;;6.95;2.47;;;11.10;99.90;;;;;;5115596;27;20027;-76
2023/09/22 01:40:16;;;;;;;7.65;2.10;;;11.10;99.90;;;;;;5134128;27;20382;-75
2023/09/22 01:42:42;;;;;;;8.43;2.42;;;11.10;99.90;;;;;;5115886;27;20110;-77
2023/09/22 01:45:09;;;;;;;4.60;1.90;;;11.10;99.90;;;;;;5135198;27;20107;-77
2023/09/22 01:47:35;;;;;;;6.13;2.03;;;11.10;99.90;;;;;;5115184;27;20484;-77
2023/09/22 01:50:01;;;;;;;9.27;2.70;;;11.10;99.90;;;;;;5133963;27;20032;-77
2023/09/22 01:52:27;;;;;;;4.97;2.00;;;11.10;99.90;;;;;;5115157;27;20030;-77
2023/09/22 01:54:52;;;;;;;8.38;2.35;;;11.10;99.90;;;;;;5134004;27;20447;-77
2023/09/22 01:57:19;;;;;;;8.60;2.15;;;11.00;99.90;;;;;;5133606;27;20059;-77
2023/09/22 01:59:46;;;;;;;5.63;1.83;;;11.00;99.90;;;;;;5133318;27;20060;-77
2023/09/22 02:02:13;;;;;;;6.55;1.70;;;11.00;99.90;;;;;;5133897;27;20034;-77
2023/09/22 02:04:39;;;;;;;4.82;2.20;;;10.90;99.90;;;;;;5114961;27;20035;-76
2023/09/22 02:07:07;;;;;;;7.03;2.20;;;10.90;99.90;;;;;;5133476;27;20087;-77
2023/09/22 02:09:34;;;;;;;7.95;1.90;;;10.90;99.90;;;;;;5132649;27;20098;-77
2023/09/22 02:12:00;;;;;;;8.38;2.85;;;10.90;99.90;;;;;;5133144;27;20035;-76
2023/09/22 02:14:25;;;;;;;6.57;1.98;;;10.90;99.90;;;;;;5132937;27;20102;-76
2023/09/22 02:16:51;;;;;;;6.20;2.03;;;10.90;99.90;;;;;;5133469;27;20070;-77
2023/09/22 02:19:17;;;;;;;9.50;2.42;;;11.00;99.90;;;;;;5133220;27;20076;-77
2023/09/22 02:21:45;;;;;;;5.97;2.22;;;11.00;99.90;;;;;;5132814;27;20027;-77
2023/09/22 02:24:11;;;;;;;7.85;2.20;;;11.00;99.90;;;;;;5133036;27;20106;-78
2023/09/22 02:26:37;;;;;;;5.90;1.80;;;10.90;99.90;;;;;;5132236;27;20106;-76
2023/09/22 02:29:02;;;;;;;9.30;1.90;;;10.90;99.90;;;;;;5132931;27;20032;-76
2023/09/22 02:31:28;;;;;;;11.52;2.30;;;10.80;99.90;;;;;;5132315;27;20027;-77
2023/09/22 02:33:54;;;;;;;9.95;2.38;;;10.90;99.90;;;;;;5133019;27;20043;-76
2023/09/22 02:36:20;;;;;;;9.00;2.75;;;10.90;99.90;;;;;;5132829;27;20469;-76
2023/09/22 02:38:45;;;;;;;6.85;1.95;;;10.90;99.90;;;;;;5132323;27;20054;-76
2023/09/22 02:41:14;;;;;;;6.03;1.83;;;11.00;99.90;;;;;;5132525;27;20046;-76
2023/09/22 02:43:39;;;;;;;6.88;2.13;;;11.00;99.90;;;;;;5132183;27;20019;-76
2023/09/22 02:46:05;;;;;;;7.50;2.00;;;11.00;99.90;;;;;;5113720;27;20353;-76
2023/09/22 02:48:31;;;;;;;6.53;1.85;;;10.90;99.90;;;;;;5130937;27;20038;-77
2023/09/22 02:50:57;;;;;;;12.38;2.05;;;10.90;99.90;;;;;;5132367;27;20034;-76
2023/09/22 02:53:23;;;;;;;5.40;1.80;;;10.80;99.90;;;;;;5132314;27;20027;-76
2023/09/22 02:55:49;;;;;;;5.15;1.60;;;10.90;99.90;;;;;;5113290;27;20076;-76
2023/09/22 02:58:16;;;;;;;9.00;1.88;;;10.90;99.90;;;;;;5113632;27;20031;-76
2023/09/22 03:00:45;;;;;;;9.38;2.78;;;10.80;99.90;;;;;;5131625;27;20019;-78
2023/09/22 03:03:14;;;;;;;8.65;1.85;;;10.80;99.90;;;;;;5132331;27;20023;-77
2023/09/22 03:05:39;;;;;;;5.70;1.85;;;10.90;99.90;;;;;;5113321;27;20020;-77
2023/09/22 03:08:06;;;;;;;9.23;1.95;;;10.80;99.90;;;;;;5132246;27;20035;-77
2023/09/22 03:10:32;;;;;;;10.05;1.73;;;10.80;99.90;;;;;;5113063;27;20030;-77
2023/09/22 03:12:58;;;;;;;9.55;2.30;;;10.80;99.90;;;;;;5113601;27;20449;-76
2023/09/22 03:15:24;;;;;;;11.50;2.40;;;10.80;99.90;;;;;;5131866;27;20034;-75
2023/09/22 03:17:50;;;;;;;9.50;1.52;;;10.80;99.90;;;;;;5131918;27;20027;-76
2023/09/22 03:20:17;;;;;;;9.05;1.67;;;10.80;99.90;;;;;;5113403;27;20023;-76
2023/09/22 03:22:43;;;;;;;8.52;2.10;;;10.80;99.90;;;;;;5131627;27;20028;-75
2023/09/22 03:25:10;;;;;;;6.03;1.58;;;10.80;99.90;;;;;;5132221;27;20027;-77
2023/09/22 03:27:37;;;;;;;10.38;2.20;;;10.70;99.90;;;;;;5131571;27;20027;-77
2023/09/22 03:30:05;;;;;;;6.80;1.70;;;10.70;99.90;;;;;;5131908;27;20020;-76
2023/09/22 03:32:32;;;;;;;6.35;2.08;;;10.70;99.90;;;;;;5131280;27;20499;-77
2023/09/22 03:34:57;;;;;;;6.95;1.70;;;10.70;99.90;;;;;;5131979;27;20026;-76
2023/09/22 03:37:27;;;;;;;10.45;1.83;;;10.60;99.90;;;;;;5113424;27;20027;-76
2023/09/22 03:39:55;;;;;;;9.10;1.85;;;10.60;99.90;;;;;;5131160;27;20042;-76
2023/09/22 03:42:20;;;;;;;9.60;1.90;;;10.60;99.90;;;;;;5131489;27;20084;-76
2023/09/22 03:44:47;;;;;;;5.13;1.55;;;10.60;99.90;;;;;;5131137;27;20106;-76
2023/09/22 03:47:13;;;;;;;7.38;1.67;;;10.60;99.90;;;;;;5131769;27;20108;-76
2023/09/22 03:49:38;;;;;;;10.15;1.88;;;10.50;99.90;;;;;;5131090;27;20115;-77
2023/09/22 03:52:04;;;;;;;6.78;2.15;;;10.50;99.90;;;;;;5131999;27;20031;-77
2023/09/22 03:54:30;;;;;;;5.28;1.67;;;10.50;99.90;;;;;;5131769;27;20064;-78
2023/09/22 03:56:56;;;;;;;7.78;1.55;;;10.60;99.90;;;;;;5131280;28;20027;-77
2023/09/22 03:59:22;;;;;;;5.95;1.63;;;10.60;99.90;;;;;;5131226;27;20023;-76
2023/09/22 04:01:48;;;;;;;8.63;1.77;;;10.50;99.90;;;;;;5130411;28;20480;-76
2023/09/22 04:04:14;;;;;;;7.35;1.60;;;10.50;99.90;;;;;;5130963;28;20152;-76
2023/09/22 04:06:40;;;;;;;9.13;2.30;;;10.40;99.90;;;;;;5130880;28;20424;-77
2023/09/22 04:09:07;;;;;;;7.80;2.03;;;10.40;99.90;;;;;;5131554;28;20055;-77
2023/09/22 04:11:34;;;;;;;8.75;1.95;;;10.40;99.90;;;;;;5130504;28;20475;-78
2023/09/22 04:14:01;;;;;;;11.02;2.30;;;10.40;99.90;;;;;;5131455;28;20581;-77
2023/09/22 04:16:27;;;;;;;6.85;1.73;;;10.40;99.90;;;;;;5113546;28;20034;-77
2023/09/22 04:18:54;;;;;;;9.43;1.80;;;10.30;99.90;;;;;;5130788;28;20320;-77
2023/09/22 04:21:23;;;;;;;8.23;2.10;;;10.40;99.90;;;;;;5131445;28;20031;-77
2023/09/22 04:23:58;;;;;;;8.57;1.80;;;10.30;99.90;;;;;;5131026;28;20096;-77
2023/09/22 04:26:28;;;;;;;11.68;2.20;;;10.40;99.90;;;;;;5131102;28;20098;-77
2023/09/22 04:28:55;;;;;;;16.65;1.70;;;10.30;99.90;;;;;;5130484;28;20035;-77
2023/09/22 04:31:25;;;;;;;8.05;1.92;;;10.30;99.90;;;;;;5131321;28;20027;-77
2023/09/22 04:33:52;;;;;;;10.15;2.20;;;10.30;99.90;;;;;;5130752;28;20059;-78
2023/09/22 04:36:19;;;;;;;8.52;2.15;;;10.30;99.90;;;;;;5131404;28;20352;-77
2023/09/22 04:38:45;;;;;;;4.72;1.58;;;10.20;99.90;;;;;;5130553;28;20046;-76
2023/09/22 04:41:11;;;;;;;9.38;1.85;;;10.10;99.90;;;;;;5131002;28;20031;-77
2023/09/22 04:43:36;;;;;;;12.13;1.92;;;10.10;99.90;;;;;;5130313;28;20075;-77
2023/09/22 04:46:02;;;;;;;10.25;2.10;;;10.10;99.90;;;;;;5112381;27;20106;-76
2023/09/22 04:48:28;;;;;;;8.45;1.95;;;10.00;99.90;;;;;;5131267;28;20092;-76
2023/09/22 04:50:54;;;;;;;12.18;2.30;;;10.00;99.90;;;;;;5112180;28;20088;-76
2023/09/22 04:53:20;;;;;;;5.45;1.90;;;10.00;99.90;;;;;;5131048;28;20474;-76
2023/09/22 04:55:47;;;;;;;8.75;2.10;;;10.00;99.90;;;;;;5112218;28;20034;-77
2023/09/22 04:58:14;;;;;;;9.25;1.70;;;9.90;99.90;;;;;;5130800;28;20179;-77
2023/09/22 05:00:40;;;;;;;5.75;1.80;;;9.90;99.90;;;;;;5130383;28;20103;-76
2023/09/22 05:03:07;;;;;;;11.05;2.10;;;9.90;99.90;;;;;;5130949;28;20413;-77
2023/09/22 05:05:33;;;;;;;6.28;1.95;;;9.80;99.90;;;;;;5130949;28;20065;-76
2023/09/22 05:07:59;;;;;;;8.85;1.75;;;9.80;99.90;;;;;;5130284;28;20433;-76
2023/09/22 05:10:25;;;;;;;10.45;1.98;;;9.80;99.90;;;;;;5131402;27;20503;-76
2023/09/22 05:12:52;;;;;;;10.55;2.45;;;9.70;99.90;;;;;;5115221;27;20031;-77
2023/09/22 05:15:18;;;;;;;10.60;1.95;;;9.70;99.90;;;;;;5134786;27;20026;-77
2023/09/22 05:17:43;;;;;;;9.05;2.10;;;9.70;99.90;;;;;;5134157;27;20080;-77
2023/09/22 05:20:14;;;;;;;9.73;2.08;;;9.70;99.90;;;;;;5134270;27;20091;-76
2023/09/22 05:22:41;;;;;;;9.55;1.75;;;9.70;99.90;;;;;;5134073;27;20560;-78
2023/09/22 05:25:07;;;;;;;10.98;2.10;;;9.70;99.90;;;;;;5134539;27;20107;-77
2023/09/22 05:27:34;;;;;;;7.95;2.35;;;9.70;99.90;;;;;;5134547;27;20027;-77
2023/09/22 05:30:02;;;;;;;12.68;2.10;;;9.60;99.90;;;;;;5133729;27;20482;-77
2023/09/22 05:32:28;;;;;;;11.45;2.42;;;9.60;99.90;;;;;;5134745;27;20027;-77
2023/09/22 05:34:54;;;;;;;5.57;1.70;;;9.60;99.90;;;;;;5134040;27;20031;-78
2023/09/22 05:37:19;;;;;;;10.75;2.00;;;9.60;99.90;;;;;;5116066;27;20027;-77
2023/09/22 05:39:45;;;;;;;10.88;2.45;;;9.60;99.90;;;;;;5133325;27;20034;-76
2023/09/22 05:42:11;;;;;;;9.02;1.95;;;9.50;99.90;;;;;;5134039;27;20534;-77
2023/09/22 05:44:37;;;;;;;12.23;2.25;;;9.60;99.90;;;;;;5134100;27;20068;-76
2023/09/22 05:47:04;;;;;;;12.00;1.98;;;9.50;99.90;;;;;;5133530;27;20047;-77
2023/09/22 05:49:30;;;;;;;8.65;2.05;;;9.50;99.90;;;;;;5134071;27;20034;-77
2023/09/22 05:51:55;;;;;;;5.35;1.70;;;9.50;99.90;;;;;;5133475;27;20023;-77
2023/09/22 05:54:21;;;;;;;6.85;2.60;;;9.50;99.90;;;;;;5133819;27;20157;-77
2023/09/22 05:56:47;;;;;;;8.50;1.92;;;9.50;99.90;;;;;;5133248;27;20020;-77
2023/09/22 05:59:13;;;;;;;7.95;2.10;;;9.50;99.90;;;;;;5133463;27;20160;-77
2023/09/22 06:01:39;;;;;;;9.88;2.13;;;9.40;99.90;;;;;;5133514;27;20512;-77
2023/09/22 06:04:05;;;;;;;5.45;1.58;;;9.40;99.90;;;;;;5114690;27;20409;-76
2023/09/22 06:06:34;;;;;;;13.00;1.98;;;9.40;99.90;;;;;;5133555;27;20034;-76
2023/09/22 06:09:00;;;;;;;10.98;2.38;;;9.30;99.90;;;;;;5114275;27;20675;-77
2023/09/22 06:11:26;;;;;;;9.07;1.85;;;9.30;99.90;;;;;;5133282;27;20023;-77
2023/09/22 06:13:52;;;;;;;8.68;2.55;;;9.30;99.90;;;;;;5132613;27;20420;-77
2023/09/22 06:16:18;;;;;;;8.57;2.65;;;9.30;99.90;;;;;;5133366;27;20103;-76
2023/09/22 06:18:44;;;;;;;11.88;2.70;;;9.20;99.90;;;;;;5132580;27;20031;-78
2023/09/22 06:21:11;;;;;;;9.60;2.10;;;9.10;99.90;;;;;;5133213;27;20028;-76
2023/09/22 06:23:38;;;;;;;7.15;1.80;;;9.20;99.90;;;;;;5114266;27;20023;-76
2023/09/22 06:26:10;;;;;;;8.23;2.20;;;9.20;99.90;;;;;;5133162;27;20028;-76
2023/09/22 06:28:37;;;;;;;10.02;2.53;;;9.20;99.90;;;;;;5115206;27;20031;-76
2023/09/22 06:31:04;;;;;;;9.68;2.47;;;9.20;99.90;;;;;;5132002;27;20483;-76
2023/09/22 06:33:30;;;;;;;6.95;1.83;;;9.20;99.90;;;;;;5132727;27;20020;-76
2023/09/22 06:36:02;;;;;;;10.48;2.15;;;9.30;99.90;;;;;;5131870;27;20015;-77
2023/09/22 06:38:32;;;;;;;8.80;2.28;;;9.30;99.90;;;;;;5132416;27;20035;-77
2023/09/22 06:40:59;;;;;;;8.07;2.20;;;9.30;99.90;;;;;;5132227;27;20043;-77
2023/09/22 06:43:25;;;;;;;10.93;2.00;;;9.30;99.90;;;;;;5132646;27;20114;-76
2023/09/22 06:45:52;;;;;;;8.98;1.88;;;9.40;99.90;;;;;;5131860;27;20114;-77
2023/09/22 06:48:22;;;;;;;11.38;2.70;;;9.40;99.90;;;;;;5132464;27;20133;-75
2023/09/22 06:50:51;;;;;;;11.95;1.80;;;9.50;99.90;;;;;;5131860;27;20487;-76
2023/09/22 06:53:18;;;;;;;11.95;2.67;;;9.50;99.90;;;;;;5132799;27;20023;-77
2023/09/22 06:55:44;;;;;;;9.88;2.05;;;9.60;99.90;;;;;;5132546;27;20031;-78
2023/09/22 06:58:10;;;;;;;10.13;1.80;;;9.60;99.90;;;;;;5132545;27;20068;-77
2023/09/22 07:00:35;;;;;;;7.10;1.95;;;9.60;99.90;;;;;;5132230;27;20023;-77
2023/09/22 07:03:01;;;;;;;8.15;1.98;;;9.60;99.90;;;;;;5131849;27;20205;-77
2023/09/22 07:05:27;;;;;;;12.77;2.65;;;9.60;99.90;;;;;;5132079;27;20027;-77
2023/09/22 07:07:53;;;;;;;11.32;2.83;;;9.60;99.90;;;;;;5131195;27;20139;-76
2023/09/22 07:10:19;;;;;;;6.72;2.10;;;9.60;99.90;;;;;;5132185;27;20548;-76
2023/09/22 07:12:45;;;;;;;12.55;2.20;;;9.70;99.90;;;;;;5131576;27;20023;-78
2023/09/22 07:15:11;;;;;;;12.57;3.10;;;9.80;99.90;;;;;;5131673;27;20098;-77
2023/09/22 07:17:37;;;;;;;9.13;2.20;;;9.90;99.90;;;;;;5113565;27;20110;-76
2023/09/22 07:20:05;;;;;;;10.35;2.10;;;10.00;99.90;;;;;;5112884;27;20042;-77
2023/09/22 07:22:34;;;;;;;9.10;1.90;;;10.10;99.90;;;;;;5131844;27;20039;-77
2023/09/22 07:25:01;;;;;;;8.57;2.00;;;10.30;99.90;;;;;;5131292;27;20353;-78
2023/09/22 07:27:27;;;;;;;11.75;1.95;;;10.30;99.90;;;;;;5131874;27;20042;-77
2023/09/22 07:29:52;;;;;;;12.15;2.67;;;10.30;99.90;;;;;;5131361;27;20129;-78
2023/09/22 07:32:20;;;;;;;10.18;2.25;;;10.40;99.90;;;;;;5131623;27;20028;-77
2023/09/22 07:34:48;;;;;;;11.48;3.08;;;10.50;99.90;;;;;;5130345;27;20046;-78
2023/09/22 07:37:15;;;;;;;10.20;2.40;;;10.60;99.90;;;;;;5131333;27;20388;-78
2023/09/22 07:39:41;;;;;;;8.55;1.98;;;10.60;99.90;;;;;;5131542;27;20098;-77
2023/09/22 07:42:09;;;;;;;7.20;2.17;;;10.70;99.90;;;;;;5131002;27;20172;-77
2023/09/22 07:44:35;;;;;;;6.97;1.70;;;10.80;99.90;;;;;;5131434;27;20031;-76
2023/09/22 07:47:03;;;;;;;6.25;1.60;;;10.90;99.90;;;;;;5130383;27;20051;-77
2023/09/22 07:49:29;;;;;;;8.80;1.65;;;11.00;99.90;;;;;;5131311;27;20023;-77
2023/09/22 07:51:55;;;;;;;8.50;2.15;;;11.20;99.90;;;;;;5130819;27;20457;-77
2023/09/22 07:54:24;;;;;;;10.05;2.20;;;11.30;99.90;;;;;;5131371;27;20039;-77
2023/09/22 07:56:50;;;;;;;8.13;1.80;;;11.30;99.90;;;;;;5130757;28;20015;-76
2023/09/22 07:59:16;;;;;;;6.75;1.77;;;11.40;99.90;;;;;;5131117;28;20031;-76
2023/09/22 08:01:43;;;;;;;7.75;2.35;;;11.50;99.90;;;;;;5130941;28;20433;-76
2023/09/22 08:04:09;;;;;;;5.32;1.95;;;11.60;99.90;;;;;;5130747;28;20031;-76
2023/09/22 08:06:36;;;;;;;9.18;2.20;;;11.70;99.90;;;;;;5130989;28;20064;-76
2023/09/22 08:09:03;;;;;;;8.48;1.92;;;11.70;99.90;;;;;;5130869;28;20489;-77
2023/09/22 08:11:29;;;;;;;7.53;2.00;;;11.80;99.90;;;;;;5131074;28;20051;-76
2023/09/22 08:13:55;;;;;;;8.23;2.22;;;11.80;99.90;;;;;;5130267;28;20034;-75
2023/09/22 08:16:21;;;;;;;9.82;2.05;;;11.80;99.90;;;;;;5131065;28;20140;-76
2023/09/22 08:18:47;;;;;;;9.55;2.50;;;11.80;99.90;;;;;;5131158;28;20054;-77
2023/09/22 08:21:13;;;;;;;6.78;1.77;;;11.90;99.90;;;;;;5130784;28;20463;-76
2023/09/22 08:23:40;;;;;;;5.97;1.88;;;11.90;99.90;;;;;;5131429;28;20471;-76
2023/09/22 08:26:06;;;;;;;5.63;1.60;;;11.90;99.90;;;;;;5130642;28;20092;-76
2023/09/22 08:28:37;;;;;;;7.50;1.80;;;12.00;99.90;;;;;;5131118;28;20035;-77
2023/09/22 08:31:05;;;;;;;6.70;2.22;;;12.10;99.90;;;;;;5130476;28;20027;-77
2023/09/22 08:33:32;;;;;;;8.25;1.85;;;12.10;99.90;;;;;;5131133;28;20031;-76
2023/09/22 08:35:57;;;;;;;15.68;5.75;;;12.20;99.90;;;;;;5130415;28;20432;-76
2023/09/22 08:38:23;;;;;;;11.45;2.10;;;12.30;99.90;;;;;;5130801;28;20027;-76
2023/09/22 08:40:50;;;;;;;10.07;1.55;;;12.30;99.90;;;;;;5130726;28;20154;-77
2023/09/22 08:43:16;;;;;;;9.23;1.90;;;12.30;99.90;;;;;;5130796;28;20046;-77
2023/09/22 08:45:42;;;;;;;8.70;1.98;;;12.40;99.90;;;;;;5113437;27;20482;-77
2023/09/22 08:48:08;;;;;;;8.80;2.10;;;12.40;99.90;;;;;;5134576;27;20402;-78
2023/09/22 08:50:34;;;;;;;6.35;2.25;;;12.40;99.90;;;;;;5134708;27;20072;-77
2023/09/22 08:53:01;;;;;;;7.95;2.13;;;12.50;99.90;;;;;;5134045;27;20061;-77
2023/09/22 08:55:28;;;;;;;7.60;2.35;;;12.60;99.90;;;;;;5134958;27;20118;-76
2023/09/22 08:57:54;;;;;;;8.18;1.60;;;12.70;99.90;;;;;;5133999;27;20049;-77
2023/09/22 09:00:26;;;;;;;7.95;1.73;;;12.70;99.90;;;;;;5134711;27;20106;-76
2023/09/22 09:02:55;;;;;;;8.02;1.95;;;12.70;99.90;;;;;;5134207;27;20519;-78
2023/09/22 09:05:28;;;;;;;5.70;2.10;;;12.70;99.90;;;;;;5135066;27;20117;-77
2023/09/22 09:07:56;;;;;;;7.85;1.80;;;12.80;99.90;;;;;;5133850;27;20078;-78
2023/09/22 09:10:29;;;;;;;5.72;1.67;;;12.90;99.90;;;;;;5134408;27;20051;-77
2023/09/22 09:12:56;;;;;;;6.50;1.70;;;13.10;99.90;;;;;;5133879;27;20031;-78
2023/09/22 09:15:25;;;;;;;6.28;1.50;;;13.20;99.90;;;;;;5134328;27;20027;-77
2023/09/22 09:18:08;;;;;;;4.20;1.27;;;13.30;99.90;;;;;;5134062;27;20070;-78
2023/09/22 09:20:36;;;;;;;7.28;1.77;;;13.30;99.90;;;;;;5134071;27;20039;-77
2023/09/22 09:23:15;;;;;;;6.88;1.40;;;13.40;99.90;;;;;;5133136;27;20034;-77
2023/09/22 09:25:45;;;;;;;8.50;1.55;;;13.40;99.90;;;;;;5133611;27;20031;-77
2023/09/22 09:28:12;;;;;;;5.53;1.30;;;13.40;99.90;;;;;;5134484;27;20042;-76
2023/09/22 09:30:48;;;;;;;8.90;1.67;;;13.50;99.90;;;;;;5133339;27;20503;-76
2023/09/22 09:33:15;;;;;;;5.05;1.35;;;13.40;99.90;;;;;;5132928;27;20092;-76
2023/09/22 09:35:41;;;;;;;7.95;1.63;;;13.60;99.90;;;;;;5133383;27;20036;-76
2023/09/22 09:38:10;;;;;;;6.78;2.10;;;13.60;99.90;;;;;;5132960;27;20031;-77
2023/09/22 09:40:39;;;;;;;4.55;1.50;;;13.80;99.90;;;;;;5133240;27;20027;-78
2023/09/22 09:43:06;;;;;;;6.47;1.38;;;13.80;99.90;;;;;;5132594;27;20050;-78
2023/09/22 09:45:36;;;;;;;10.98;1.52;;;13.90;99.90;;;;;;5133133;27;20027;-77
2023/09/22 09:48:05;;;;;;;6.72;1.55;;;13.80;99.90;;;;;;5133144;27;20051;-78
2023/09/22 09:50:34;;;;;;;6.05;1.58;;;13.90;99.90;;;;;;5133768;27;20027;-77
2023/09/22 09:53:13;;;;;;;5.80;1.75;;;13.90;99.90;;;;;;5133093;27;20020;-78
2023/09/22 09:55:40;;;;;;;5.38;1.65;;;13.90;99.90;;;;;;5133853;27;20043;-77
2023/09/22 09:58:10;;;;;;;5.45;1.75;;;14.00;99.90;;;;;;5132279;27;20030;-78
2023/09/22 10:00:38;;;;;;;8.25;1.65;;;14.00;99.90;;;;;;5133249;27;20028;-77
2023/09/22 10:03:07;;;;;;;7.55;1.88;;;14.10;99.90;;;;;;5132737;27;20038;-78
2023/09/22 10:05:34;;;;;;;6.95;1.48;;;14.10;99.90;;;;;;5133436;27;20119;-77
2023/09/22 10:08:00;;;;;;;9.20;1.67;;;13.90;99.90;;;;;;5132356;27;20111;-77
2023/09/22 10:10:27;;;;;;;5.95;1.80;;;13.80;99.90;;;;;;5133190;27;20042;-77
2023/09/22 10:12:54;;;;;;;6.65;2.05;;;13.70;99.90;;;;;;5133185;27;20023;-77
2023/09/22 10:15:52;;;;;;;12.32;2.13;;;13.60;99.90;;;;;;5114457;27;20051;-77
2023/09/22 10:18:19;;;;;;;4.45;1.60;;;13.50;99.90;;;;;;5132472;27;20429;-77
2023/09/22 10:20:46;;;;;;;7.22;2.00;;;13.60;99.90;;;;;;5132668;27;20453;-78
2023/09/22 10:23:27;;;;;;;9.45;1.63;;;13.70;99.90;;;;;;5132256;27;20351;-78
2023/09/22 10:26:05;;;;;;;5.78;1.48;;;13.70;99.90;;;;;;5132796;27;20031;-77
2023/09/22 10:28:31;;;;;;;8.68;1.45;;;13.80;99.90;;;;;;5132644;27;20118;-77
2023/09/22 10:30:56;;;;;;;9.00;1.67;;;14.00;99.90;;;;;;5113579;27;20468;-77
2023/09/22 10:33:22;;;;;;;10.15;1.75;;;14.00;99.90;;;;;;5131921;27;20088;-76
2023/09/22 10:35:49;;;;;;;6.18;1.70;;;14.10;99.90;;;;;;5132126;27;20027;-77
2023/09/22 10:38:15;;;;;;;7.18;1.73;;;14.10;99.90;;;;;;5131872;27;20031;-77
2023/09/22 10:41:00;;;;;;;6.80;1.70;;;14.20;99.90;;;;;;5132352;27;20106;-77
2023/09/22 10:43:26;;;;;;;9.10;1.90;;;14.30;99.90;;;;;;5132407;27;20024;-76
2023/09/22 10:45:52;;;;;;;8.40;1.70;;;14.10;99.90;;;;;;5132577;27;20414;-77
2023/09/22 10:48:19;;;;;;;9.13;2.38;;;14.10;99.90;;;;;;5131562;27;20039;-77
2023/09/22 10:50:52;;;;;;;7.50;1.70;;;14.30;99.90;;;;;;5114087;27;20400;-77
2023/09/22 10:53:18;;;;;;;6.07;1.80;;;14.30;99.90;;;;;;5131709;27;20102;-78
2023/09/22 10:55:45;;;;;;;6.65;1.90;;;14.40;99.90;;;;;;5132208;27;20439;-78
2023/09/22 10:58:16;;;;;;;6.93;1.58;;;14.50;99.90;;;;;;5131661;27;20031;-78
2023/09/22 11:00:56;;;;;;;10.15;1.98;;;14.40;99.90;;;;;;5132123;27;20031;-77
2023/09/22 11:03:21;;;;;;;6.45;1.83;;;14.40;99.90;;;;;;5131482;27;20131;-78
2023/09/22 11:06:00;;;;;;;5.55;1.70;;;14.30;99.90;;;;;;5131681;27;20121;-76
2023/09/22 11:08:26;;;;;;;6.65;1.50;;;14.30;99.90;;;;;;5130885;27;20088;-76
2023/09/22 11:10:53;;;;;;;8.52;1.95;;;14.40;99.90;;;;;;5131778;27;20023;-76
2023/09/22 11:13:21;;;;;;;7.72;1.95;;;14.50;99.90;;;;;;5112604;27;20477;-77
2023/09/22 11:15:55;;;;;;;7.32;1.77;;;14.50;99.90;;;;;;5131859;27;20047;-78
2023/09/22 11:18:25;;;;;;;11.75;2.10;;;14.50;99.90;;;;;;5131338;27;20874;-77
2023/09/22 11:21:10;;;;;;;6.93;1.90;;;14.50;99.90;;;;;;5131719;27;20034;-76
2023/09/22 11:23:41;;;;;;;9.48;2.60;;;14.50;99.90;;;;;;5131943;27;20102;-77
2023/09/22 11:26:10;;;;;;;8.85;1.95;;;14.60;99.90;;;;;;5131114;27;20023;-76
2023/09/22 11:28:45;;;;;;;10.07;2.03;;;14.60;99.90;;;;;;5131483;27;20038;-77
2023/09/22 11:31:16;;;;;;;7.63;1.73;;;14.60;99.90;;;;;;5125282;27;20357;-78
2023/09/22 11:33:43;;;;;;;8.45;1.55;;;14.60;99.90;;;;;;5128517;27;20042;-78
2023/09/22 11:36:10;;;;;;;5.57;1.70;;;14.60;99.90;;;;;;5110158;28;20499;-78
2023/09/22 11:38:39;;;;;;;10.73;1.77;;;14.70;99.90;;;;;;5110534;28;20023;-77
2023/09/22 11:41:10;;;;;;;6.03;1.85;;;14.80;99.90;;;;;;5111571;28;20035;-77
2023/09/22 11:43:45;;;;;;;7.20;1.63;;;14.80;99.90;;;;;;5118208;27;20023;-78
2023/09/22 11:46:16;;;;;;;7.78;1.73;;;15.00;99.90;;;;;;5110347;28;20030;-77
2023/09/22 11:48:51;;;;;;;5.22;1.55;;;15.00;99.90;;;;;;5114583;27;20106;-77
2023/09/22 11:51:18;;;;;;;3.15;1.50;;;15.10;99.90;;;;;;5120689;27;20028;-78
2023/09/22 11:53:45;;;;;;;6.10;1.92;;;15.10;99.90;;;;;;5110512;28;20030;-78
2023/09/22 11:56:11;;;;;;;9.63;2.13;;;15.10;99.90;;;;;;5110022;28;20106;-78
2023/09/22 11:58:38;;;;;;;9.43;1.83;;;15.10;99.90;;;;;;5110605;28;20074;-77
2023/09/22 12:01:05;;;;;;;6.45;1.60;;;15.20;99.90;;;;;;5110248;28;20064;-78
2023/09/22 12:03:32;;;;;;;6.55;1.90;;;15.20;99.90;;;;;;5110528;28;20024;-78
2023/09/22 12:05:59;;;;;;;4.80;1.65;;;15.20;99.90;;;;;;5112300;28;20061;-77
2023/09/22 12:08:25;;;;;;;6.22;1.80;;;15.20;99.90;;;;;;5109562;28;20333;-78
2023/09/22 12:10:50;;;;;;;8.32;1.98;;;15.20;99.90;;;;;;5110227;28;20036;-77
2023/09/22 12:13:16;;;;;;;4.75;1.58;;;15.30;99.90;;;;;;5109562;28;20019;-78
2023/09/22 12:15:42;;;;;;;9.65;2.17;;;15.20;99.90;;;;;;5111290;28;20124;-78
2023/09/22 12:18:08;;;;;;;6.97;1.50;;;15.10;99.90;;;;;;5111059;28;20035;-78
2023/09/22 12:20:35;;;;;;;5.95;1.88;;;15.00;99.90;;;;;;5095834;28;20107;-78
2023/09/22 12:23:01;;;;;;;8.60;2.05;;;15.00;99.90;;;;;;5116021;28;20032;-78
2023/09/22 12:25:27;;;;;;;7.43;1.55;;;14.90;99.90;;;;;;5116214;28;20083;-78
2023/09/22 12:27:53;;;;;;;11.45;2.15;;;14.70;99.90;;;;;;5116636;28;20110;-78
2023/09/22 12:30:18;;;;;;;4.97;1.50;;;14.80;99.90;;;;;;5116147;28;20525;-78
2023/09/22 12:32:44;;;;;;;10.43;1.95;;;14.90;99.90;;;;;;5116924;28;20031;-78
2023/09/22 12:35:10;;;;;;;8.50;1.98;;;15.10;99.90;;;;;;5115678;28;20076;-78
2023/09/22 12:37:36;;;;;;;7.30;2.10;;;15.20;99.90;;;;;;5116711;28;20480;-78
2023/09/22 12:40:03;;;;;;;5.50;1.35;;;15.30;99.90;;;;;;5098072;28;20030;-78
2023/09/22 12:42:31;;;;;;;4.80;1.55;;;15.20;99.90;;;;;;5115114;28;20020;-78
2023/09/22 12:44:57;;;;;;;7.38;1.77;;;15.10;99.90;;;;;;5115343;28;20475;-77
2023/09/22 12:47:23;;;;;;;5.18;1.50;;;14.90;99.90;;;;;;5114811;28;20429;-78
2023/09/22 12:49:49;;;;;;;4.20;1.23;;;14.80;99.90;;;;;;5115337;28;20047;-77